Time;durP1;ratioP1;P1;durP2;ratioP2;P2;SDS_P1;SDS_P2;PMS_P1;PMS_P2;Temp;Humidity;BMP_temperature;BMP_pressure;BME280_temperature;BME280_humidity;BME280_pressure;Samples;Min_cycle;Max_cycle;Signal;HPM_P1;HPM_P2
2024/01/10 00:01:42;;;;;;;;;;;;;;;;;;6036395;23;89266;-66
2024/01/10 00:04:08;;;;;;;;;;;;;;;;;;6036126;23;89784;-67
2024/01/10 00:06:33;;;;;;;;;;;;;;;;;;6039527;23;89929;-69
2024/01/10 00:08:58;;;;;;;;;;;;;;;;;;6036755;23;90008;-68
2024/01/10 00:11:23;;;;;;;;;;;;;;;;;;6035734;23;90460;-69
2024/01/10 00:13:49;;;;;;;;;;;;;;;;;;6036386;23;89337;-71
2024/01/10 00:16:14;;;;;;;;;;;;;;;;;;6035959;23;89787;-67
2024/01/10 00:18:40;;;;;;;;;;;;;;;;;;6036200;23;89303;-67
2024/01/10 00:21:05;;;;;;;;;;;;;;;;;;6036035;23;88957;-68
2024/01/10 00:23:30;;;;;;;;;;;;;;;;;;6036175;23;89527;-68
2024/01/10 00:25:56;;;;;;;;;;;;;;;;;;6035879;23;89299;-68
2024/01/10 00:28:21;;;;;;;;;;;;;;;;;;6037232;23;89418;-68
2024/01/10 00:30:49;;;;;;;;;;;;;;;;;;6035511;23;89841;-65
2024/01/10 00:33:14;;;;;;;;;;;;;;;;;;6036098;23;89001;-69
2024/01/10 00:35:40;;;;;;;;;;;;;;;;;;6059019;23;89753;-66
2024/01/10 00:38:05;;;;;;;;;;;;;;;;;;6035933;23;89846;-72
2024/01/10 00:40:30;;;;;;;;;;;;;;;;;;6036623;23;89453;-71
2024/01/10 00:42:56;;;;;;;;;;;;;;;;;;6036127;23;89588;-72
2024/01/10 00:45:21;;;;;;;;;;;;;;;;;;6036147;23;89414;-71
2024/01/10 00:47:48;;;;;;;;;;;;;;;;;;6035470;23;89438;-70
2024/01/10 00:50:13;;;;;;;;;;;;;;;;;;6039297;23;89611;-69
2024/01/10 00:52:38;;;;;;;;;;;;;;;;;;6035625;23;89586;-71
2024/01/10 00:55:04;;;;;;;;;;;;;;;;;;6036872;23;89514;-72
2024/01/10 00:57:29;;;;;;;;;;;;;;;;;;6036269;23;89888;-72
2024/01/10 00:59:54;;;;;;;;;;;;;;;;;;6036761;23;89408;-68
2024/01/10 01:02:19;;;;;;;;;;;;;;;;;;6037156;23;89562;-67
2024/01/10 01:04:44;;;;;;;;;;;;;;;;;;6035824;23;89647;-66
2024/01/10 01:07:09;;;;;;;;;;;;;;;;;;6035489;23;89048;-65
2024/01/10 01:09:35;;;;;;;;;;;;;;;;;;6036651;23;90256;-71
2024/01/10 01:12:00;;;;;;;;;;;;;;;;;;6039135;23;89593;-71
2024/01/10 01:14:25;;;;;;;;;;;;;;;;;;6035923;23;89393;-71
2024/01/10 01:16:51;;;;;;;;;;;;;;;;;;6035386;23;89171;-71
2024/01/10 01:19:16;;;;;;;;;;;;;;;;;;6036090;23;89407;-69
2024/01/10 01:21:42;;;;;;;;;;;;;;;;;;6035848;23;89968;-70
2024/01/10 01:24:07;;;;;;;;;;;;;;;;;;6036420;23;89849;-69
2024/01/10 01:26:32;;;;;;;;;;;;;;;;;;6036545;23;89099;-71
2024/01/10 01:28:57;;;;;;;;;;;;;;;;;;6036073;23;89736;-71
2024/01/10 01:31:22;;;;;;;;;;;;;;;;;;6039370;23;89209;-71
2024/01/10 01:33:48;;;;;;;;;;;;;;;;;;6036549;23;89310;-71
2024/01/10 01:36:13;;;;;;;;;;;;;;;;;;6036936;23;89238;-71
2024/01/10 01:38:38;;;;;;;;;;;;;;;;;;6036859;23;89552;-71
2024/01/10 01:41:05;;;;;;;;;;;;;;;;;;6036113;23;89491;-68
2024/01/10 01:43:30;;;;;;;;;;;;;;;;;;6035297;23;89251;-70
2024/01/10 01:45:56;;;;;;;;;;;;;;;;;;6035532;23;89059;-70
2024/01/10 01:48:22;;;;;;;;;;;;;;;;;;6035452;23;90638;-69
2024/01/10 01:50:49;;;;;;;;;;;;;;;;;;6034501;23;89588;-71
2024/01/10 01:53:14;;;;;;;;;;;;;;;;;;6039366;23;89504;-71
2024/01/10 01:55:40;;;;;;;;;;;;;;;;;;6033803;23;90324;-68
2024/01/10 01:58:05;;;;;;;;;;;;;;;;;;6035788;23;89386;-71
2024/01/10 02:00:31;;;;;;;;;;;;;;;;;;6035679;23;89645;-71
2024/01/10 02:02:58;;;;;;;;;;;;;;;;;;6035301;23;89421;-66
2024/01/10 02:05:24;;;;;;;;;;;;;;;;;;6034801;23;90223;-67
2024/01/10 02:07:49;;;;;;;;;;;;;;;;;;6035602;23;89782;-65
2024/01/10 02:10:15;;;;;;;;;;;;;;;;;;6034377;23;90476;-66
2024/01/10 02:12:40;;;;;;;;;;;;;;;;;;6035739;23;89652;-67
2024/01/10 02:15:05;;;;;;;;;;;;;;;;;;6039032;23;89645;-67
2024/01/10 02:17:31;;;;;;;;;;;;;;;;;;6035513;23;88974;-69
2024/01/10 02:20:07;;;;;;;;;;;;;;;;;;6035477;23;89651;-69
2024/01/10 02:22:32;;;;;;;;;;;;;;;;;;6035691;23;89687;-67
2024/01/10 02:24:57;;;;;;;;;;;;;;;;;;6035554;23;89448;-67
2024/01/10 02:27:23;;;;;;;;;;;;;;;;;;6033484;23;92327;-66
2024/01/10 02:29:48;;;;;;;;;;;;;;;;;;6033892;23;89327;-67
2024/01/10 02:32:13;;;;;;;;;;;;;;;;;;6035546;23;89401;-69
2024/01/10 02:34:39;;;;;;;;;;;;;;;;;;6035393;23;89615;-67
2024/01/10 02:37:04;;;;;;;;;;;;;;;;;;6038355;23;89580;-67
2024/01/10 02:39:29;;;;;;;;;;;;;;;;;;6032931;23;92323;-69
2024/01/10 02:41:54;;;;;;;;;;;;;;;;;;6034982;23;89582;-66
2024/01/10 02:44:19;;;;;;;;;;;;;;;;;;6035481;23;90030;-66
2024/01/10 02:46:45;;;;;;;;;;;;;;;;;;6033716;23;90858;-68
2024/01/10 02:49:10;;;;;;;;;;;;;;;;;;6034779;23;89505;-69
2024/01/10 02:51:35;;;;;;;;;;;;;;;;;;6034759;23;89273;-72
2024/01/10 02:54:00;;;;;;;;;;;;;;;;;;6032666;23;92747;-69
2024/01/10 02:56:25;;;;;;;;;;;;;;;;;;6034543;23;89579;-70
2024/01/10 02:58:51;;;;;;;;;;;;;;;;;;6038532;23;89291;-69
2024/01/10 03:01:16;;;;;;;;;;;;;;;;;;6034859;23;89962;-71
2024/01/10 03:03:41;;;;;;;;;;;;;;;;;;6034817;23;89601;-70
2024/01/10 03:06:06;;;;;;;;;;;;;;;;;;6036393;23;90470;-71
2024/01/10 03:08:31;;;;;;;;;;;;;;;;;;6036458;23;90628;-72
2024/01/10 03:10:57;;;;;;;;;;;;;;;;;;6036310;23;89798;-72
2024/01/10 03:13:22;;;;;;;;;;;;;;;;;;6036633;23;90167;-68
2024/01/10 03:15:47;;;;;;;;;;;;;;;;;;6036130;23;90316;-65
2024/01/10 03:18:12;;;;;;;;;;;;;;;;;;6035965;23;89198;-70
2024/01/10 03:20:38;;;;;;;;;;;;;;;;;;6040203;23;89666;-72
2024/01/10 03:23:03;;;;;;;;;;;;;;;;;;6036943;23;89455;-72
2024/01/10 03:25:28;;;;;;;;;;;;;;;;;;6036641;23;90239;-67
2024/01/10 03:27:53;;;;;;;;;;;;;;;;;;6035681;23;89795;-67
2024/01/10 03:30:19;;;;;;;;;;;;;;;;;;6036009;23;88992;-71
2024/01/10 03:32:44;;;;;;;;;;;;;;;;;;6036122;23;89591;-69
2024/01/10 03:35:10;;;;;;;;;;;;;;;;;;6036677;23;89393;-70
2024/01/10 03:37:35;;;;;;;;;;;;;;;;;;6034492;23;88913;-70
2024/01/10 03:40:00;;;;;;;;;;;;;;;;;;6039493;23;91516;-67
2024/01/10 03:42:25;;;;;;;;;;;;;;;;;;6035982;23;88954;-68
2024/01/10 03:44:51;;;;;;;;;;;;;;;;;;6036625;23;89655;-66
2024/01/10 03:47:16;;;;;;;;;;;;;;;;;;6036090;23;89840;-68
2024/01/10 03:49:41;;;;;;;;;;;;;;;;;;6036796;23;88996;-66
2024/01/10 03:52:06;;;;;;;;;;;;;;;;;;6036334;23;89074;-68
2024/01/10 03:54:31;;;;;;;;;;;;;;;;;;6035853;23;89049;-67
2024/01/10 03:56:57;;;;;;;;;;;;;;;;;;6036439;23;88973;-69
2024/01/10 03:59:22;;;;;;;;;;;;;;;;;;6036715;23;89587;-67
2024/01/10 04:01:48;;;;;;;;;;;;;;;;;;6039389;23;89538;-68
2024/01/10 04:04:13;;;;;;;;;;;;;;;;;;6036837;23;89691;-70
2024/01/10 04:06:38;;;;;;;;;;;;;;;;;;6033767;23;91756;-71
2024/01/10 04:09:08;;;;;;;;;;;;;;;;;;6036858;23;89309;-69
2024/01/10 04:11:33;;;;;;;;;;;;;;;;;;6034503;23;90757;-67
2024/01/10 04:13:58;;;;;;;;;;;;;;;;;;6035720;23;89612;-68
2024/01/10 04:16:23;;;;;;;;;;;;;;;;;;6035934;23;89497;-69
2024/01/10 04:18:49;;;;;;;;;;;;;;;;;;6035831;23;89906;-66
2024/01/10 04:21:14;;;;;;;;;;;;;;;;;;6036509;23;89854;-65
2024/01/10 04:23:39;;;;;;;;;;;;;;;;;;6037842;23;89566;-69
2024/01/10 04:26:04;;;;;;;;;;;;;;;;;;6034043;23;91947;-68
2024/01/10 04:28:29;;;;;;;;;;;;;;;;;;6036036;23;89249;-71
2024/01/10 04:30:55;;;;;;;;;;;;;;;;;;6034738;23;89735;-70
2024/01/10 04:33:20;;;;;;;;;;;;;;;;;;6033665;23;91011;-71
2024/01/10 04:35:45;;;;;;;;;;;;;;;;;;6036352;23;89883;-69
2024/01/10 04:38:10;;;;;;;;;;;;;;;;;;6036300;23;89610;-67
2024/01/10 04:40:35;;;;;;;;;;;;;;;;;;6035830;23;89548;-68
2024/01/10 04:43:01;;;;;;;;;;;;;;;;;;6036056;23;88957;-67
2024/01/10 04:45:26;;;;;;;;;;;;;;;;;;6039307;23;90249;-68
2024/01/10 04:47:51;;;;;;;;;;;;;;;;;;6036719;23;90119;-66
2024/01/10 04:50:16;;;;;;;;;;;;;;;;;;6036910;23;89854;-66
2024/01/10 04:52:42;;;;;;;;;;;;;;;;;;6036148;23;90034;-67
2024/01/10 04:55:07;;;;;;;;;;;;;;;;;;6035384;23;90371;-65
2024/01/10 04:57:33;;;;;;;;;;;;;;;;;;6036010;23;89607;-70
2024/01/10 04:59:58;;;;;;;;;;;;;;;;;;6035823;23;89374;-72
2024/01/10 05:02:23;;;;;;;;;;;;;;;;;;6036567;23;89586;-71
2024/01/10 05:04:49;;;;;;;;;;;;;;;;;;6034610;23;92714;-72
2024/01/10 05:07:14;;;;;;;;;;;;;;;;;;6040829;23;89403;-71
2024/01/10 05:09:39;;;;;;;;;;;;;;;;;;6034273;23;92393;-72
2024/01/10 05:12:05;;;;;;;;;;;;;;;;;;6035659;23;89023;-70
2024/01/10 05:14:30;;;;;;;;;;;;;;;;;;6035959;23;88987;-70
2024/01/10 05:16:55;;;;;;;;;;;;;;;;;;6036156;23;89613;-72
2024/01/10 05:19:20;;;;;;;;;;;;;;;;;;6035231;23;89302;-72
2024/01/10 05:21:46;;;;;;;;;;;;;;;;;;6036512;23;89320;-71
2024/01/10 05:24:12;;;;;;;;;;;;;;;;;;6035471;23;89609;-72
2024/01/10 05:26:37;;;;;;;;;;;;;;;;;;6038754;23;89643;-66
2024/01/10 05:29:02;;;;;;;;;;;;;;;;;;6035584;23;90025;-68
2024/01/10 05:31:28;;;;;;;;;;;;;;;;;;6035123;23;89781;-67
2024/01/10 05:33:53;;;;;;;;;;;;;;;;;;6035745;23;89101;-69
2024/01/10 05:36:22;;;;;;;;;;;;;;;;;;6036317;23;89617;-67
2024/01/10 05:38:47;;;;;;;;;;;;;;;;;;6035318;23;89204;-70
2024/01/10 05:41:14;;;;;;;;;;;;;;;;;;6035557;23;89461;-70
2024/01/10 05:43:39;;;;;;;;;;;;;;;;;;6035512;23;89747;-67
2024/01/10 05:46:04;;;;;;;;;;;;;;;;;;6035785;23;89895;-68
2024/01/10 05:48:30;;;;;;;;;;;;;;;;;;6039181;23;89265;-66
2024/01/10 05:50:55;;;;;;;;;;;;;;;;;;6035472;23;89112;-66
2024/01/10 05:53:20;;;;;;;;;;;;;;;;;;6035829;23;89019;-67
2024/01/10 05:55:45;;;;;;;;;;;;;;;;;;6036384;23;89965;-66
2024/01/10 05:58:11;;;;;;;;;;;;;;;;;;6033589;23;89124;-67
2024/01/10 06:00:36;;;;;;;;;;;;;;;;;;6035809;23;89244;-65
2024/01/10 06:03:01;;;;;;;;;;;;;;;;;;6057851;23;92600;-70
2024/01/10 06:05:26;;;;;;;;;;;;;;;;;;6035124;23;89345;-73
2024/01/10 06:07:52;;;;;;;;;;;;;;;;;;6034829;23;89165;-69
2024/01/10 06:10:17;;;;;;;;;;;;;;;;;;6039060;23;89642;-67
2024/01/10 06:12:42;;;;;;;;;;;;;;;;;;6035204;23;89359;-69
2024/01/10 06:15:08;;;;;;;;;;;;;;;;;;6035789;23;89646;-69
2024/01/10 06:17:33;;;;;;;;;;;;;;;;;;6035020;23;89286;-68
2024/01/10 06:20:03;;;;;;;;;;;;;;;;;;6035074;23;89477;-66
2024/01/10 06:22:28;;;;;;;;;;;;;;;;;;6034728;23;89705;-67
2024/01/10 06:24:53;;;;;;;;;;;;;;;;;;6035771;23;89502;-67
2024/01/10 06:27:19;;;;;;;;;;;;;;;;;;6035771;23;89522;-71
2024/01/10 06:29:44;;;;;;;;;;;;;;;;;;6034256;23;89598;-66
2024/01/10 06:32:10;;;;;;;;;;;;;;;;;;6036555;23;90712;-69
2024/01/10 06:34:36;;;;;;;;;;;;;;;;;;6034102;23;89762;-69
2024/01/10 06:37:02;;;;;;;;;;;;;;;;;;6034506;23;89220;-71
2024/01/10 06:39:27;;;;;;;;;;;;;;;;;;6036397;23;89202;-70
2024/01/10 06:41:52;;;;;;;;;;;;;;;;;;6035086;23;89519;-71
2024/01/10 06:44:18;;;;;;;;;;;;;;;;;;6036390;23;89806;-71
2024/01/10 06:46:44;;;;;;;;;;;;;;;;;;6035085;23;89510;-70
2024/01/10 06:49:09;;;;;;;;;;;;;;;;;;6035995;23;89943;-70
2024/01/10 06:51:35;;;;;;;;;;;;;;;;;;6036640;23;89258;-69
2024/01/10 06:54:03;;;;;;;;;;;;;;;;;;6038345;23;89011;-70
2024/01/10 06:56:32;;;;;;;;;;;;;;;;;;6032867;23;91987;-73
2024/01/10 06:58:58;;;;;;;;;;;;;;;;;;6034821;23;89499;-73
2024/01/10 07:01:23;;;;;;;;;;;;;;;;;;6034963;23;89616;-75
2024/01/10 07:03:49;;;;;;;;;;;;;;;;;;6035529;23;89507;-70
2024/01/10 07:06:16;;;;;;;;;;;;;;;;;;6034059;23;89007;-74
2024/01/10 07:08:42;;;;;;;;;;;;;;;;;;6034904;23;90392;-72
2024/01/10 07:11:08;;;;;;;;;;;;;;;;;;6038490;23;89354;-75
2024/01/10 07:13:33;;;;;;;;;;;;;;;;;;6039491;23;89525;-75
2024/01/10 07:16:01;;;;;;;;;;;;;;;;;;6052014;23;92257;-72
2024/01/10 07:18:26;;;;;;;;;;;;;;;;;;6047597;23;89010;-76
2024/01/10 07:20:52;;;;;;;;;;;;;;;;;;6044508;23;89752;-78
2024/01/10 07:23:18;;;;;;;;;;;;;;;;;;6048115;23;89365;-77
2024/01/10 07:25:43;;;;;;;;;;;;;;;;;;6042920;23;89085;-78
2024/01/10 07:28:08;;;;;;;;;;;;;;;;;;6046500;23;92126;-79
2024/01/10 07:30:33;;;;;;;;;;;;;;;;;;6053900;23;92229;-78
2024/01/10 07:32:58;;;;;;;;;;;;;;;;;;6060417;23;88871;-80
2024/01/10 07:35:23;;;;;;;;;;;;;;;;;;6043499;23;92763;-72
2024/01/10 07:37:49;;;;;;;;;;;;;;;;;;6036651;23;89011;-74
2024/01/10 07:40:15;;;;;;;;;;;;;;;;;;6039877;23;89713;-73
2024/01/10 07:42:40;;;;;;;;;;;;;;;;;;6035610;23;91647;-76
2024/01/10 07:45:05;;;;;;;;;;;;;;;;;;6035196;23;89048;-73
2024/01/10 07:47:31;;;;;;;;;;;;;;;;;;6037130;23;89689;-74
2024/01/10 07:49:56;;;;;;;;;;;;;;;;;;6036519;23;89398;-72
2024/01/10 07:52:22;;;;;;;;;;;;;;;;;;6035346;23;88975;-75
2024/01/10 07:54:48;;;;;;;;;;;;;;;;;;6036766;23;89623;-74
2024/01/10 07:57:13;;;;;;;;;;;;;;;;;;6043163;23;90798;-73
2024/01/10 07:59:38;;;;;;;;;;;;;;;;;;6038774;23;92313;-73
2024/01/10 08:02:04;;;;;;;;;;;;;;;;;;6036413;23;89636;-74
2024/01/10 08:04:29;;;;;;;;;;;;;;;;;;6035799;23;89310;-74
2024/01/10 08:06:55;;;;;;;;;;;;;;;;;;6034743;23;89422;-73
2024/01/10 08:09:24;;;;;;;;;;;;;;;;;;6042683;23;89864;-70
2024/01/10 08:11:50;;;;;;;;;;;;;;;;;;6035502;23;89203;-76
2024/01/10 08:14:16;;;;;;;;;;;;;;;;;;6038298;23;90175;-74
2024/01/10 08:16:42;;;;;;;;;;;;;;;;;;6049235;23;89757;-74
2024/01/10 08:19:08;;;;;;;;;;;;;;;;;;6058593;23;89165;-78
2024/01/10 08:21:33;;;;;;;;;;;;;;;;;;6041214;23;89276;-74
2024/01/10 08:23:59;;;;;;;;;;;;;;;;;;6039342;23;89479;-76
2024/01/10 08:26:25;;;;;;;;;;;;;;;;;;6039159;23;89638;-77
2024/01/10 08:28:50;;;;;;;;;;;;;;;;;;6033521;23;90474;-79
2024/01/10 08:31:18;;;;;;;;;;;;;;;;;;6035631;23;89065;-77
2024/01/10 08:33:44;;;;;;;;;;;;;;;;;;6037200;23;92344;-76
2024/01/10 08:36:10;;;;;;;;;;;;;;;;;;6034949;23;91964;-73
2024/01/10 08:38:35;;;;;;;;;;;;;;;;;;6037786;23;89225;-73
2024/01/10 08:41:01;;;;;;;;;;;;;;;;;;6041769;23;90012;-74
2024/01/10 08:43:26;;;;;;;;;;;;;;;;;;6034529;23;89603;-73
2024/01/10 08:45:51;;;;;;;;;;;;;;;;;;6034829;23;89887;-74
2024/01/10 08:48:17;;;;;;;;;;;;;;;;;;6034218;23;89621;-73
2024/01/10 08:50:42;;;;;;;;;;;;;;;;;;6034077;23;89520;-74
2024/01/10 08:53:08;;;;;;;;;;;;;;;;;;6034024;23;89575;-73
2024/01/10 08:55:34;;;;;;;;;;;;;;;;;;6034294;23;89746;-73
2024/01/10 08:57:59;;;;;;;;;;;;;;;;;;6034559;23;89607;-74
2024/01/10 09:00:24;;;;;;;;;;;;;;;;;;6033725;23;89629;-72
2024/01/10 09:02:50;;;;;;;;;;;;;;;;;;6034346;23;90516;-75
2024/01/10 09:05:15;;;;;;;;;;;;;;;;;;6034984;23;89763;-73
2024/01/10 09:07:42;;;;;;;;;;;;;;;;;;6033938;23;89582;-73
2024/01/10 09:10:07;;;;;;;;;;;;;;;;;;6033996;23;89568;-72
2024/01/10 09:12:32;;;;;;;;;;;;;;;;;;6033927;23;90698;-73
2024/01/10 09:14:58;;;;;;;;;;;;;;;;;;6032619;23;91850;-73
2024/01/10 09:17:23;;;;;;;;;;;;;;;;;;6034213;23;89459;-73
2024/01/10 09:19:48;;;;;;;;;;;;;;;;;;6057184;23;91268;-72
2024/01/10 09:22:14;;;;;;;;;;;;;;;;;;6033108;23;89255;-73
2024/01/10 09:24:39;;;;;;;;;;;;;;;;;;6038375;23;89391;-72
2024/01/10 09:27:04;;;;;;;;;;;;;;;;;;6033688;23;89459;-72
2024/01/10 09:29:31;;;;;;;;;;;;;;;;;;6033952;23;89689;-73
2024/01/10 09:31:56;;;;;;;;;;;;;;;;;;6034000;23;89603;-72
2024/01/10 09:34:22;;;;;;;;;;;;;;;;;;6033712;23;89958;-72
2024/01/10 09:36:47;;;;;;;;;;;;;;;;;;6032780;23;88988;-73
2024/01/10 09:39:13;;;;;;;;;;;;;;;;;;6033752;23;91151;-71
2024/01/10 09:41:45;;;;;;;;;;;;;;;;;;6033564;23;90486;-77
2024/01/10 09:44:11;;;;;;;;;;;;;;;;;;6038066;23;89007;-73
2024/01/10 09:46:38;;;;;;;;;;;;;;;;;;6054181;23;92236;-72
2024/01/10 09:49:03;;;;;;;;;;;;;;;;;;6030805;23;89440;-73
2024/01/10 09:51:29;;;;;;;;;;;;;;;;;;6033418;23;90158;-72
2024/01/10 09:53:56;;;;;;;;;;;;;;;;;;6034725;23;90009;-73
2024/01/10 09:56:22;;;;;;;;;;;;;;;;;;6035449;23;89508;-73
2024/01/10 09:58:48;;;;;;;;;;;;;;;;;;6033462;23;92005;-72
2024/01/10 10:01:13;;;;;;;;;;;;;;;;;;6034609;23;89447;-72
2024/01/10 10:03:40;;;;;;;;;;;;;;;;;;6035643;23;89020;-72
2024/01/10 10:06:07;;;;;;;;;;;;;;;;;;6038160;23;89723;-73
2024/01/10 10:08:32;;;;;;;;;;;;;;;;;;6034831;23;89565;-72
2024/01/10 10:10:58;;;;;;;;;;;;;;;;;;6034756;23;89684;-72
2024/01/10 10:13:28;;;;;;;;;;;;;;;;;;6033169;23;90880;-73
2024/01/10 10:16:03;;;;;;;;;;;;;;;;;;6033567;23;89709;-72
2024/01/10 10:18:29;;;;;;;;;;;;;;;;;;6035196;23;89652;-73
2024/01/10 10:21:08;;;;;;;;;;;;;;;;;;6034948;23;89161;-72
2024/01/10 10:23:34;;;;;;;;;;;;;;;;;;6034460;23;89059;-73
2024/01/10 10:26:09;;;;;;;;;;;;;;;;;;6034051;23;91066;-72
2024/01/10 10:28:34;;;;;;;;;;;;;;;;;;6039215;23;89291;-73
2024/01/10 10:30:59;;;;;;;;;;;;;;;;;;6035497;23;89558;-68
2024/01/10 10:33:26;;;;;;;;;;;;;;;;;;6034558;23;89424;-74
2024/01/10 10:35:51;;;;;;;;;;;;;;;;;;6034619;23;89004;-72
2024/01/10 10:38:16;;;;;;;;;;;;;;;;;;6033798;23;89605;-72
2024/01/10 10:40:41;;;;;;;;;;;;;;;;;;6034656;23;89167;-71
2024/01/10 10:43:09;;;;;;;;;;;;;;;;;;6035071;23;89481;-72
2024/01/10 10:45:35;;;;;;;;;;;;;;;;;;6034636;23;89999;-72
2024/01/10 10:48:01;;;;;;;;;;;;;;;;;;6030648;23;91321;-73
2024/01/10 10:50:36;;;;;;;;;;;;;;;;;;6036871;23;89497;-71
2024/01/10 10:53:03;;;;;;;;;;;;;;;;;;6034374;23;89692;-72
2024/01/10 10:55:28;;;;;;;;;;;;;;;;;;6031960;23;89559;-73
2024/01/10 10:57:55;;;;;;;;;;;;;;;;;;6034057;23;89763;-73
2024/01/10 11:00:21;;;;;;;;;;;;;;;;;;6033208;23;89490;-72
2024/01/10 11:02:47;;;;;;;;;;;;;;;;;;6033990;23;89625;-73
2024/01/10 11:05:12;;;;;;;;;;;;;;;;;;6035049;23;89380;-71
2024/01/10 11:07:39;;;;;;;;;;;;;;;;;;6034575;23;89953;-72
2024/01/10 11:10:17;;;;;;;;;;;;;;;;;;6033689;23;89128;-71
2024/01/10 11:12:42;;;;;;;;;;;;;;;;;;6035781;23;91035;-72
2024/01/10 11:15:26;;;;;;;;;;;;;;;;;;6033461;23;89461;-71
2024/01/10 11:18:03;;;;;;;;;;;;;;;;;;6033641;23;89480;-72
2024/01/10 11:20:48;;;;;;;;;;;;;;;;;;6031260;23;89858;-70
2024/01/10 11:23:36;;;;;;;;;;;;;;;;;;6034163;23;89469;-69
2024/01/10 11:26:02;;;;;;;;;;;;;;;;;;6032622;23;90374;-72
2024/01/10 11:28:30;;;;;;;;;;;;;;;;;;6033987;23;89951;-73
2024/01/10 11:30:56;;;;;;;;;;;;;;;;;;6034141;23;89844;-71
2024/01/10 11:33:23;;;;;;;;;;;;;;;;;;6034858;23;89129;-70
2024/01/10 11:36:10;;;;;;;;;;;;;;;;;;6037741;23;89819;-73
2024/01/10 11:38:39;;;;;;;;;;;;;;;;;;6033450;23;89569;-74
2024/01/10 11:41:04;;;;;;;;;;;;;;;;;;6032505;23;90780;-70
2024/01/10 11:43:29;;;;;;;;;;;;;;;;;;6036550;23;89230;-77
2024/01/10 11:45:55;;;;;;;;;;;;;;;;;;6034514;23;89718;-74
2024/01/10 11:48:27;;;;;;;;;;;;;;;;;;6034142;23;89751;-72
2024/01/10 11:50:53;;;;;;;;;;;;;;;;;;6034645;23;89094;-78
2024/01/10 11:53:39;;;;;;;;;;;;;;;;;;6032876;23;92339;-71
2024/01/10 11:56:11;;;;;;;;;;;;;;;;;;6036239;23;90633;-73
2024/01/10 11:58:52;;;;;;;;;;;;;;;;;;6033202;23;89633;-71
2024/01/10 12:01:17;;;;;;;;;;;;;;;;;;6056698;23;92116;-72
2024/01/10 12:03:43;;;;;;;;;;;;;;;;;;6033990;23;89397;-72
2024/01/10 12:06:09;;;;;;;;;;;;;;;;;;6056385;23;92223;-72
2024/01/10 12:08:34;;;;;;;;;;;;;;;;;;6033723;23;89587;-71
2024/01/10 12:11:01;;;;;;;;;;;;;;;;;;6033476;23;89149;-71
2024/01/10 12:13:26;;;;;;;;;;;;;;;;;;6034642;23;90954;-72
2024/01/10 12:15:52;;;;;;;;;;;;;;;;;;6034808;23;89645;-73
2024/01/10 12:18:17;;;;;;;;;;;;;;;;;;6039667;23;88958;-73
2024/01/10 12:20:45;;;;;;;;;;;;;;;;;;6035082;23;89620;-72
2024/01/10 12:23:10;;;;;;;;;;;;;;;;;;6034669;23;89488;-72
2024/01/10 12:25:36;;;;;;;;;;;;;;;;;;6033709;23;90041;-72
2024/01/10 12:28:02;;;;;;;;;;;;;;;;;;6033189;23;89382;-72
2024/01/10 12:30:27;;;;;;;;;;;;;;;;;;6054439;23;89051;-73
2024/01/10 12:32:53;;;;;;;;;;;;;;;;;;6034727;23;89751;-73
2024/01/10 12:35:20;;;;;;;;;;;;;;;;;;6033888;23;89712;-73
2024/01/10 12:37:58;;;;;;;;;;;;;;;;;;6033496;23;89343;-73
2024/01/10 12:40:23;;;;;;;;;;;;;;;;;;6036336;23;91107;-73
2024/01/10 12:42:49;;;;;;;;;;;;;;;;;;6034515;23;89545;-71
2024/01/10 12:45:23;;;;;;;;;;;;;;;;;;6033391;23;89692;-72
2024/01/10 12:47:49;;;;;;;;;;;;;;;;;;6031763;23;91981;-71
2024/01/10 12:50:15;;;;;;;;;;;;;;;;;;6034103;23;89261;-73
2024/01/10 12:52:42;;;;;;;;;;;;;;;;;;6033259;23;89814;-72
2024/01/10 12:55:08;;;;;;;;;;;;;;;;;;6033927;23;89434;-72
2024/01/10 12:57:33;;;;;;;;;;;;;;;;;;6034110;23;89172;-72
2024/01/10 12:59:58;;;;;;;;;;;;;;;;;;6055532;23;92525;-72
2024/01/10 13:02:23;;;;;;;;;;;;;;;;;;6036229;23;91390;-71
2024/01/10 13:04:49;;;;;;;;;;;;;;;;;;6034247;23;89732;-74
2024/01/10 13:07:14;;;;;;;;;;;;;;;;;;6033889;23;89487;-72
2024/01/10 13:09:39;;;;;;;;;;;;;;;;;;6033386;23;89573;-72
2024/01/10 13:12:05;;;;;;;;;;;;;;;;;;6034449;23;89585;-71
2024/01/10 13:14:31;;;;;;;;;;;;;;;;;;6033982;23;89917;-71
2024/01/10 13:16:56;;;;;;;;;;;;;;;;;;6034562;23;89529;-71
2024/01/10 13:19:21;;;;;;;;;;;;;;;;;;6035448;23;89991;-71
2024/01/10 13:21:47;;;;;;;;;;;;;;;;;;6035423;23;90780;-71
2024/01/10 13:24:12;;;;;;;;;;;;;;;;;;6038693;23;89394;-72
2024/01/10 13:26:38;;;;;;;;;;;;;;;;;;6034389;23;89458;-73
2024/01/10 13:29:03;;;;;;;;;;;;;;;;;;6034224;23;89028;-74
2024/01/10 13:31:28;;;;;;;;;;;;;;;;;;6034856;23;89658;-71
2024/01/10 13:33:54;;;;;;;;;;;;;;;;;;6034217;23;90321;-70
2024/01/10 13:36:19;;;;;;;;;;;;;;;;;;6034115;23;89742;-72
2024/01/10 13:38:44;;;;;;;;;;;;;;;;;;6032967;23;91119;-72
2024/01/10 13:41:10;;;;;;;;;;;;;;;;;;6056973;23;92039;-72
2024/01/10 13:43:35;;;;;;;;;;;;;;;;;;6033176;23;89095;-71
2024/01/10 13:46:04;;;;;;;;;;;;;;;;;;6037292;23;89709;-69
2024/01/10 13:48:29;;;;;;;;;;;;;;;;;;6034328;23;89011;-71
2024/01/10 13:50:54;;;;;;;;;;;;;;;;;;6034186;23;89711;-72
2024/01/10 13:53:20;;;;;;;;;;;;;;;;;;6032876;23;90413;-71
2024/01/10 13:55:46;;;;;;;;;;;;;;;;;;6035473;23;89646;-71
2024/01/10 13:58:11;;;;;;;;;;;;;;;;;;6057347;23;90665;-71
2024/01/10 14:00:37;;;;;;;;;;;;;;;;;;6034989;23;89642;-71
2024/01/10 14:03:03;;;;;;;;;;;;;;;;;;6034935;23;89680;-71
2024/01/10 14:05:28;;;;;;;;;;;;;;;;;;6038011;23;90007;-67
2024/01/10 14:07:54;;;;;;;;;;;;;;;;;;6035961;23;90231;-74
2024/01/10 14:10:19;;;;;;;;;;;;;;;;;;6035808;23;89731;-73
2024/01/10 14:12:45;;;;;;;;;;;;;;;;;;6034498;23;89840;-72
2024/01/10 14:15:10;;;;;;;;;;;;;;;;;;6035040;23;88979;-71
2024/01/10 14:17:36;;;;;;;;;;;;;;;;;;6034128;23;89694;-73
2024/01/10 14:20:01;;;;;;;;;;;;;;;;;;6033618;23;89629;-72
2024/01/10 14:22:26;;;;;;;;;;;;;;;;;;6033505;23;89325;-71
2024/01/10 14:24:51;;;;;;;;;;;;;;;;;;6034497;23;90063;-70
2024/01/10 14:27:16;;;;;;;;;;;;;;;;;;6060310;23;90681;-72
2024/01/10 14:29:42;;;;;;;;;;;;;;;;;;6033976;23;89667;-73
2024/01/10 14:32:07;;;;;;;;;;;;;;;;;;6034007;23;89723;-72
2024/01/10 14:34:32;;;;;;;;;;;;;;;;;;6034563;23;88971;-74
2024/01/10 14:36:57;;;;;;;;;;;;;;;;;;6034821;23;89954;-73
2024/01/10 14:39:23;;;;;;;;;;;;;;;;;;6033729;23;89678;-72
2024/01/10 14:41:49;;;;;;;;;;;;;;;;;;6032598;23;89792;-73
2024/01/10 14:44:14;;;;;;;;;;;;;;;;;;6033974;23;89661;-71
2024/01/10 14:46:39;;;;;;;;;;;;;;;;;;6056064;23;91700;-71
2024/01/10 14:49:05;;;;;;;;;;;;;;;;;;6036814;23;90188;-70
2024/01/10 14:51:30;;;;;;;;;;;;;;;;;;6032253;23;90043;-71
2024/01/10 14:53:55;;;;;;;;;;;;;;;;;;6034603;23;90175;-72
2024/01/10 14:56:21;;;;;;;;;;;;;;;;;;6034532;23;89320;-72
2024/01/10 14:58:46;;;;;;;;;;;;;;;;;;6035844;23;89446;-71
2024/01/10 15:01:11;;;;;;;;;;;;;;;;;;6035722;23;89602;-71
2024/01/10 15:03:37;;;;;;;;;;;;;;;;;;6033680;23;92341;-71
2024/01/10 15:06:05;;;;;;;;;;;;;;;;;;6035090;23;89236;-71
2024/01/10 15:08:31;;;;;;;;;;;;;;;;;;6058236;23;89756;-70
2024/01/10 15:10:56;;;;;;;;;;;;;;;;;;6037866;23;89716;-71
2024/01/10 15:13:21;;;;;;;;;;;;;;;;;;6034905;23;89311;-71
2024/01/10 15:15:47;;;;;;;;;;;;;;;;;;6035035;23;89520;-71
2024/01/10 15:18:12;;;;;;;;;;;;;;;;;;6035001;23;89408;-71
2024/01/10 15:20:37;;;;;;;;;;;;;;;;;;6034991;23;88954;-71
2024/01/10 15:23:02;;;;;;;;;;;;;;;;;;6033512;23;90077;-71
2024/01/10 15:25:28;;;;;;;;;;;;;;;;;;6034448;23;89653;-71
2024/01/10 15:27:53;;;;;;;;;;;;;;;;;;6034727;23;89451;-71
2024/01/10 15:30:18;;;;;;;;;;;;;;;;;;6033775;23;90219;-71
2024/01/10 15:32:44;;;;;;;;;;;;;;;;;;6037118;23;89186;-71
2024/01/10 15:35:09;;;;;;;;;;;;;;;;;;6035278;23;89696;-71
2024/01/10 15:37:34;;;;;;;;;;;;;;;;;;6056419;23;92449;-71
2024/01/10 15:40:00;;;;;;;;;;;;;;;;;;6034274;23;88945;-72
2024/01/10 15:42:25;;;;;;;;;;;;;;;;;;6035173;23;90067;-70
2024/01/10 15:44:50;;;;;;;;;;;;;;;;;;6033475;23;89439;-71
2024/01/10 15:47:16;;;;;;;;;;;;;;;;;;6035099;23;88970;-70
2024/01/10 15:49:41;;;;;;;;;;;;;;;;;;6035381;23;89722;-71
2024/01/10 15:52:07;;;;;;;;;;;;;;;;;;6037811;23;90222;-70
2024/01/10 15:54:37;;;;;;;;;;;;;;;;;;6035355;23;90030;-70
2024/01/10 15:57:02;;;;;;;;;;;;;;;;;;6034574;23;90687;-71
2024/01/10 15:59:28;;;;;;;;;;;;;;;;;;6034061;23;89611;-71
2024/01/10 16:01:54;;;;;;;;;;;;;;;;;;6057021;23;91167;-70
2024/01/10 16:04:19;;;;;;;;;;;;;;;;;;6034220;23;90131;-69
2024/01/10 16:06:44;;;;;;;;;;;;;;;;;;6033735;23;89011;-70
2024/01/10 16:09:12;;;;;;;;;;;;;;;;;;6033839;23;89524;-70
2024/01/10 16:11:44;;;;;;;;;;;;;;;;;;6032674;23;90228;-71
2024/01/10 16:14:09;;;;;;;;;;;;;;;;;;6037896;23;89357;-71
2024/01/10 16:16:37;;;;;;;;;;;;;;;;;;6033211;23;89247;-70
2024/01/10 16:19:06;;;;;;;;;;;;;;;;;;6033640;23;89606;-70
2024/01/10 16:21:31;;;;;;;;;;;;;;;;;;6033652;23;89918;-70
2024/01/10 16:23:57;;;;;;;;;;;;;;;;;;6034174;23;89717;-71
2024/01/10 16:26:22;;;;;;;;;;;;;;;;;;6034314;23;89147;-71
2024/01/10 16:28:48;;;;;;;;;;;;;;;;;;6032668;23;89690;-71
2024/01/10 16:31:13;;;;;;;;;;;;;;;;;;6032187;23;90084;-70
2024/01/10 16:33:38;;;;;;;;;;;;;;;;;;6034026;23;90211;-71
2024/01/10 16:36:04;;;;;;;;;;;;;;;;;;6037512;23;89674;-70
2024/01/10 16:38:29;;;;;;;;;;;;;;;;;;6033740;23;89713;-70